createdAt,value
2023-02-03T00:01:59.657Z,4.28
2023-02-03T00:04:30.678Z,4.40
2023-02-03T00:07:01.974Z,4.25
2023-02-03T00:09:32.779Z,4.18
2023-02-03T00:12:08.901Z,4.05
2023-02-03T00:14:40.063Z,4.45
2023-02-03T00:17:11.571Z,3.50
2023-02-03T00:19:41.199Z,5.05
2023-02-03T00:22:11.909Z,4.25
2023-02-03T00:24:42.057Z,4.32
2023-02-03T00:27:12.533Z,4.97
2023-02-03T00:29:41.993Z,5.22
2023-02-03T00:32:12.479Z,5.00
2023-02-03T00:34:43.222Z,4.63
2023-02-03T00:37:16.763Z,5.30
2023-02-03T00:39:47.288Z,5.00
2023-02-03T00:42:18.161Z,5.20
2023-02-03T00:44:47.748Z,5.72
2023-02-03T00:47:18.206Z,5.50
2023-02-03T00:49:48.478Z,5.43
2023-02-03T00:52:18.374Z,4.80
2023-02-03T00:54:47.907Z,5.10
2023-02-03T00:57:18.400Z,4.63
2023-02-03T00:59:48.153Z,5.38
2023-02-03T01:02:18.544Z,4.53
2023-02-03T01:04:48.594Z,5.82
2023-02-03T01:07:19.735Z,5.47
2023-02-03T01:09:48.843Z,6.25
2023-02-03T01:12:18.400Z,4.82
2023-02-03T01:14:47.987Z,5.40
2023-02-03T01:17:18.729Z,5.50
2023-02-03T01:19:48.441Z,5.88
2023-02-03T01:22:18.822Z,5.80
2023-02-03T01:24:48.725Z,5.50
2023-02-03T01:27:18.599Z,5.13
2023-02-03T01:29:50.626Z,5.55
2023-02-03T01:32:19.525Z,5.47
2023-02-03T01:34:48.571Z,6.35
2023-02-03T01:40:20.490Z,5.55
2023-02-03T01:42:52.434Z,5.53
2023-02-03T01:45:25.019Z,7.05
2023-02-03T01:48:04.782Z,5.97
2023-02-03T01:50:43.784Z,5.20
2023-02-03T01:53:15.984Z,5.60
2023-02-03T01:55:51.501Z,5.13
2023-02-03T01:58:32.853Z,5.70
2023-02-03T02:01:04.119Z,4.88
2023-02-03T02:03:59.443Z,4.43
2023-02-03T02:06:30.939Z,5.53
2023-02-03T02:09:03.186Z,5.00
2023-02-03T02:11:35.937Z,5.75
2023-02-03T02:14:04.844Z,6.40
2023-02-03T02:17:01.817Z,6.18
2023-02-03T02:20:08.005Z,6.18
2023-02-03T02:23:20.278Z,4.93
2023-02-03T02:25:56.485Z,6.20
2023-02-03T02:28:56.224Z,5.07
2023-02-03T02:31:42.228Z,4.68
2023-02-03T02:34:20.165Z,5.82
2023-02-03T02:37:00.744Z,5.75
2023-02-03T02:39:48.908Z,5.72
2023-02-03T02:42:32.389Z,5.63
2023-02-03T02:45:19.071Z,5.72
2023-02-03T02:47:49.338Z,5.35
2023-02-03T02:50:28.942Z,5.55
2023-02-03T02:53:01.008Z,6.00
2023-02-03T02:58:21.543Z,6.30
2023-02-03T03:00:51.157Z,6.07
2023-02-03T03:06:14.537Z,5.72
2023-02-03T03:08:51.591Z,6.03
2023-02-03T03:11:21.103Z,6.07
2023-02-03T03:13:55.731Z,5.40
2023-02-03T03:16:28.674Z,6.13
2023-02-03T03:19:04.602Z,5.90
2023-02-03T03:21:41.629Z,6.32
2023-02-03T03:24:15.859Z,5.50
2023-02-03T03:27:05.071Z,5.55
2023-02-03T03:32:25.841Z,6.07
2023-02-03T03:34:56.275Z,6.05
2023-02-03T03:37:35.374Z,5.30
2023-02-03T03:40:13.073Z,5.57
2023-02-03T03:42:52.253Z,7.22
2023-02-03T03:46:02.622Z,5.22
2023-02-03T03:48:54.111Z,5.13
2023-02-03T03:51:48.836Z,5.70
2023-02-03T03:54:24.576Z,6.25
2023-02-03T03:57:15.795Z,4.95
2023-02-03T03:59:50.026Z,5.80
2023-02-03T04:02:22.567Z,5.55
2023-02-03T04:04:52.559Z,5.78
2023-02-03T04:07:22.598Z,5.60
2023-02-03T04:09:52.045Z,5.70
2023-02-03T04:12:24.684Z,7.75
2023-02-03T04:14:55.520Z,5.78
2023-02-03T04:17:24.690Z,6.68
2023-02-03T04:19:55.738Z,5.90
2023-02-03T04:22:25.796Z,5.88
2023-02-03T04:25:01.218Z,4.93
2023-02-03T04:27:31.683Z,6.32
2023-02-03T04:30:02.440Z,6.47
2023-02-03T04:32:32.204Z,6.35
2023-02-03T04:35:03.016Z,6.60
2023-02-03T04:37:32.808Z,5.00
2023-02-03T04:40:03.403Z,6.63
2023-02-03T04:42:32.514Z,6.35
2023-02-03T04:45:02.776Z,6.45
2023-02-03T04:47:32.661Z,6.28
2023-02-03T04:50:03.849Z,6.72
2023-02-03T04:52:33.968Z,7.38
2023-02-03T04:55:03.444Z,7.15
2023-02-03T04:57:32.685Z,10.55
2023-02-03T05:00:02.853Z,8.82
2023-02-03T05:02:35.292Z,6.60
2023-02-03T05:05:05.139Z,7.47
2023-02-03T05:07:36.056Z,6.57
2023-02-03T05:10:06.818Z,6.70
2023-02-03T05:12:38.270Z,6.32
2023-02-03T05:15:35.115Z,6.20
2023-02-03T05:18:06.770Z,6.18
2023-02-03T05:20:37.933Z,8.40
2023-02-03T05:23:08.370Z,7.85
2023-02-03T05:25:38.924Z,7.43
2023-02-03T05:28:08.668Z,5.90
2023-02-03T05:30:38.822Z,6.50
2023-02-03T05:33:10.307Z,5.50
2023-02-03T05:35:39.993Z,5.20
2023-02-03T05:38:12.459Z,4.53
2023-02-03T05:41:01.301Z,5.10
2023-02-03T05:43:31.814Z,3.67
2023-02-03T05:46:05.665Z,3.58
2023-02-03T05:48:37.465Z,3.55
2023-02-03T05:51:10.233Z,3.60
2023-02-03T05:53:40.272Z,3.53
2023-02-03T05:56:11.254Z,3.75
2023-02-03T05:58:44.545Z,3.88
2023-02-03T06:04:02.072Z,3.35
2023-02-03T06:06:36.116Z,2.88
2023-02-03T06:09:08.377Z,3.42
2023-02-03T06:11:38.821Z,3.00
2023-02-03T06:14:09.106Z,2.80
2023-02-03T06:16:38.492Z,2.53
2023-02-03T06:19:09.576Z,3.20
2023-02-03T06:21:38.732Z,3.83
2023-02-03T06:24:12.759Z,3.00
2023-02-03T06:26:42.343Z,2.67
2023-02-03T06:29:12.411Z,2.10
2023-02-03T06:31:44.439Z,2.17
2023-02-03T06:34:14.589Z,2.00
2023-02-03T06:36:46.057Z,1.92
2023-02-03T06:39:16.267Z,1.95
2023-02-03T06:41:46.789Z,1.85
2023-02-03T06:44:17.758Z,1.80
2023-02-03T06:46:48.952Z,2.20
2023-02-03T06:49:20.559Z,2.10
2023-02-03T06:51:53.799Z,2.85
2023-02-03T06:54:30.145Z,2.33
2023-02-03T06:57:02.889Z,2.10
2023-02-03T06:59:34.612Z,2.10
2023-02-03T07:02:04.767Z,2.28
2023-02-03T07:04:36.504Z,2.03
2023-02-03T07:07:08.666Z,1.88
2023-02-03T07:09:38.674Z,1.95
2023-02-03T07:12:10.793Z,1.95
2023-02-03T07:14:40.401Z,2.03
2023-02-03T07:17:12.502Z,2.10
2023-02-03T07:19:46.064Z,2.60
2023-02-03T07:22:16.638Z,2.85
2023-02-03T07:24:48.071Z,2.30
2023-02-03T07:27:16.790Z,2.78
2023-02-03T07:29:47.262Z,2.30
2023-02-03T07:32:16.720Z,2.03
2023-02-03T07:34:48.930Z,2.10
2023-02-03T07:37:19.834Z,2.15
2023-02-03T07:39:51.240Z,2.60
2023-02-03T07:42:20.625Z,2.28
2023-02-03T07:44:54.919Z,2.17
2023-02-03T07:47:25.723Z,2.10
2023-02-03T07:49:57.912Z,2.15
2023-02-03T07:52:32.646Z,2.20
2023-02-03T07:55:04.069Z,1.98
2023-02-03T07:57:35.903Z,2.75
2023-02-03T08:00:06.470Z,2.13
2023-02-03T08:02:47.031Z,2.10
2023-02-03T08:05:17.690Z,2.85
2023-02-03T08:07:47.764Z,2.38
2023-02-03T08:10:20.549Z,2.58
2023-02-03T08:12:51.009Z,2.78
2023-02-03T08:15:20.816Z,2.90
2023-02-03T08:17:52.007Z,2.90
2023-02-03T08:20:22.460Z,2.78
2023-02-03T08:22:52.830Z,2.25
2023-02-03T08:25:22.887Z,3.42
2023-02-03T08:27:54.621Z,2.55
2023-02-03T08:30:23.735Z,3.78
2023-02-03T08:32:55.985Z,2.55
2023-02-03T08:35:30.616Z,2.10
2023-02-03T08:38:02.348Z,2.97
2023-02-03T08:40:32.212Z,3.35
2023-02-03T08:43:02.098Z,2.40
2023-02-03T08:45:31.710Z,2.38
2023-02-03T08:48:02.731Z,4.07
2023-02-03T08:50:32.111Z,2.35
2023-02-03T08:53:02.656Z,3.38
2023-02-03T08:55:32.791Z,3.08
2023-02-03T08:58:02.322Z,3.00
2023-02-03T09:00:32.498Z,3.03
2023-02-03T09:03:02.320Z,2.85
2023-02-03T09:05:34.917Z,2.80
2023-02-03T09:08:04.946Z,3.90
2023-02-03T09:10:34.508Z,3.65
2023-02-03T09:13:03.902Z,3.78
2023-02-03T09:15:38.640Z,3.70
2023-02-03T09:18:08.105Z,3.95
2023-02-03T09:20:38.690Z,3.15
2023-02-03T09:23:08.517Z,2.75
2023-02-03T09:25:45.922Z,3.10
2023-02-03T09:28:15.836Z,3.80
2023-02-03T09:30:44.914Z,3.83
2023-02-03T09:33:14.514Z,3.30
2023-02-03T09:35:43.946Z,3.72
2023-02-03T09:38:12.459Z,2.75
2023-02-03T09:40:43.029Z,2.83
2023-02-03T09:43:14.262Z,2.90
2023-02-03T09:45:45.109Z,2.78
2023-02-03T09:48:24.832Z,2.92
2023-02-03T09:50:55.931Z,2.60
2023-02-03T09:53:46.917Z,3.10
2023-02-03T09:56:38.149Z,3.88
2023-02-03T09:59:07.633Z,3.08
2023-02-03T10:02:03.976Z,3.55
2023-02-03T10:04:46.436Z,3.72
2023-02-03T10:07:42.767Z,2.80
2023-02-03T10:10:37.965Z,3.08
2023-02-03T10:13:30.931Z,2.60
2023-02-03T10:16:16.672Z,2.50
2023-02-03T10:18:57.599Z,3.25
2023-02-03T10:21:57.595Z,3.00
2023-02-03T10:24:44.621Z,2.92
2023-02-03T10:27:24.293Z,2.30
2023-02-03T10:29:58.128Z,3.60
2023-02-03T10:32:32.116Z,3.05
2023-02-03T10:35:02.904Z,2.97
2023-02-03T10:37:38.677Z,3.88
2023-02-03T10:40:12.695Z,3.25
2023-02-03T10:43:04.184Z,3.22
2023-02-03T10:45:38.551Z,2.85
2023-02-03T10:48:15.936Z,3.42
2023-02-03T10:50:52.316Z,3.25
2023-02-03T10:53:32.590Z,3.33
2023-02-03T10:56:14.820Z,4.25
2023-02-03T10:58:56.019Z,3.28
2023-02-03T11:01:48.592Z,3.17
2023-02-03T11:04:32.307Z,2.47
2023-02-03T11:07:07.485Z,3.13
2023-02-03T11:09:43.802Z,2.85
2023-02-03T11:12:18.057Z,3.70
2023-02-03T11:14:54.468Z,2.88
2023-02-03T11:17:30.831Z,2.90
2023-02-03T11:20:18.200Z,2.60
2023-02-03T11:22:49.043Z,2.53
2023-02-03T11:25:33.077Z,2.53
2023-02-03T11:28:07.777Z,2.63
2023-02-03T11:30:39.129Z,2.75
2023-02-03T11:33:20.495Z,3.30
2023-02-03T11:36:06.316Z,2.40
2023-02-03T11:38:43.908Z,3.60
2023-02-03T11:41:24.017Z,2.50
2023-02-03T11:43:56.997Z,2.35
2023-02-03T11:46:33.156Z,2.30
2023-02-03T11:49:20.222Z,1.98
2023-02-03T11:52:20.453Z,1.90
2023-02-03T11:55:10.836Z,1.88
2023-02-03T11:58:15.939Z,1.90
2023-02-03T12:00:56.086Z,2.22
2023-02-03T12:03:53.873Z,2.08
2023-02-03T12:06:50.306Z,1.73
2023-02-03T12:09:48.918Z,1.73
2023-02-03T12:12:35.315Z,1.80
2023-02-03T12:18:08.236Z,2.45
2023-02-03T12:20:51.100Z,1.70
2023-02-03T12:23:28.434Z,1.92
2023-02-03T12:26:11.870Z,2.22
2023-02-03T12:29:07.139Z,3.28
2023-02-03T12:31:43.150Z,2.38
2023-02-03T12:34:30.831Z,2.22
2023-02-03T12:37:28.435Z,2.30
2023-02-03T12:40:13.374Z,2.75
2023-02-03T12:42:55.796Z,2.30
2023-02-03T12:45:32.706Z,2.20
2023-02-03T12:48:13.333Z,2.08
2023-02-03T12:50:49.465Z,2.85
2023-02-03T12:53:33.785Z,2.20
2023-02-03T12:56:08.570Z,2.42
2023-02-03T12:58:45.354Z,2.58
2023-02-03T13:01:38.192Z,2.08
2023-02-03T13:04:26.357Z,2.30
2023-02-03T13:07:04.094Z,2.40
2023-02-03T13:09:44.369Z,2.30
2023-02-03T13:12:38.175Z,2.20
2023-02-03T13:15:40.207Z,2.38
2023-02-03T13:18:35.186Z,2.13
2023-02-03T13:21:06.212Z,2.47
2023-02-03T13:23:37.230Z,1.92
2023-02-03T13:26:34.849Z,2.20
2023-02-03T13:29:24.633Z,2.10
2023-02-03T13:32:23.465Z,2.75
2023-02-03T13:35:14.644Z,2.40
2023-02-03T13:40:49.270Z,3.30
2023-02-03T13:43:38.595Z,2.25
2023-02-03T13:46:24.784Z,3.03
2023-02-03T13:51:37.801Z,2.10
2023-02-03T13:54:31.622Z,2.20
2023-02-03T13:57:03.958Z,2.10
2023-02-03T13:59:46.544Z,2.22
2023-02-03T14:02:25.107Z,3.75
2023-02-03T14:04:59.925Z,2.40
2023-02-03T14:07:40.588Z,2.25
2023-02-03T14:10:26.721Z,2.97
2023-02-03T14:13:04.121Z,2.33
2023-02-03T14:15:36.807Z,2.03
2023-02-03T14:18:36.399Z,2.00
2023-02-03T14:21:18.393Z,2.30
2023-02-03T14:23:53.359Z,2.10
2023-02-03T14:28:59.397Z,1.92
2023-02-03T14:31:31.837Z,2.25
2023-02-03T14:34:16.929Z,1.95
2023-02-03T14:36:56.880Z,2.00
2023-02-03T14:39:41.789Z,1.80
2023-02-03T14:42:53.882Z,1.90
2023-02-03T14:45:41.147Z,1.65
2023-02-03T14:48:28.888Z,3.13
2023-02-03T14:51:04.755Z,2.00
2023-02-03T14:53:54.146Z,1.65
2023-02-03T14:56:54.573Z,2.38
2023-02-03T14:59:30.636Z,1.48
2023-02-03T15:02:14.164Z,1.70
2023-02-03T15:04:53.049Z,1.80
2023-02-03T15:07:50.667Z,1.50
2023-02-03T15:10:31.935Z,1.55
2023-02-03T15:13:02.553Z,1.70
2023-02-03T15:15:34.844Z,1.70
2023-02-03T15:18:23.681Z,1.55
2023-02-03T15:20:56.339Z,2.20
2023-02-03T15:23:44.181Z,2.08
2023-02-03T15:26:24.767Z,1.70
2023-02-03T15:29:03.107Z,1.50
2023-02-03T15:31:36.482Z,1.60
2023-02-03T15:34:21.263Z,1.95
2023-02-03T15:36:56.347Z,1.60
2023-02-03T15:39:30.740Z,1.40
2023-02-03T15:42:04.417Z,1.30
2023-02-03T15:44:40.547Z,1.60
2023-02-03T15:47:30.739Z,1.73
2023-02-03T15:50:40.512Z,1.80
2023-02-03T15:53:41.102Z,1.55
2023-02-03T15:56:35.902Z,1.83
2023-02-03T15:59:36.001Z,1.60
2023-02-03T16:02:24.241Z,1.50
2023-02-03T16:04:53.712Z,1.33
2023-02-03T16:07:30.727Z,1.23
2023-02-03T16:10:02.718Z,1.23
2023-02-03T16:12:33.539Z,1.60
2023-02-03T16:15:04.833Z,1.65
2023-02-03T16:17:37.183Z,1.70
2023-02-03T16:20:13.152Z,1.73
2023-02-03T16:23:08.731Z,1.17
2023-02-03T16:25:39.401Z,1.33
2023-02-03T16:28:35.868Z,1.20
2023-02-03T16:31:36.707Z,1.30
2023-02-03T16:34:38.237Z,1.10
2023-02-03T16:37:40.541Z,1.30
2023-02-03T16:40:36.936Z,1.40
2023-02-03T16:43:31.858Z,1.00
2023-02-03T16:46:20.719Z,1.20
2023-02-03T16:49:09.026Z,1.42
2023-02-03T16:51:44.519Z,1.20
2023-02-03T16:54:19.712Z,1.10
2023-02-03T16:56:51.132Z,1.50
2023-02-03T16:59:22.041Z,1.23
2023-02-03T17:01:51.663Z,1.50
2023-02-03T17:04:20.836Z,1.35
2023-02-03T17:06:52.602Z,1.27
2023-02-03T17:09:25.655Z,1.40
2023-02-03T17:11:56.707Z,1.70
2023-02-03T17:14:28.734Z,1.17
2023-02-03T17:17:01.842Z,1.20
2023-02-03T17:19:32.517Z,1.10
2023-02-03T17:22:03.208Z,1.42
2023-02-03T17:24:32.585Z,1.50
2023-02-03T17:27:02.740Z,1.23
2023-02-03T17:29:32.567Z,1.45
2023-02-03T17:32:02.793Z,1.35
2023-02-03T17:34:34.904Z,1.10
2023-02-03T17:37:04.497Z,1.40
2023-02-03T17:53:31.760Z,1.40
2023-02-03T17:56:15.818Z,1.20
2023-02-03T17:58:46.982Z,1.60
2023-02-03T18:01:20.157Z,1.20
2023-02-03T18:03:56.416Z,1.40
2023-02-03T18:06:31.047Z,1.00
2023-02-03T18:09:03.850Z,1.50
2023-02-03T18:11:35.627Z,1.30
2023-02-03T18:14:06.790Z,1.40
2023-02-03T18:16:36.613Z,1.20
2023-02-03T18:19:11.207Z,1.30
2023-02-03T18:21:41.997Z,1.48
2023-02-03T18:24:15.805Z,1.50
2023-02-03T18:26:53.154Z,1.30
2023-02-03T18:29:25.088Z,1.30
2023-02-03T18:31:54.917Z,1.20
2023-02-03T18:34:24.484Z,2.17
2023-02-03T18:36:54.878Z,1.52
2023-02-03T18:39:24.051Z,1.38
2023-02-03T18:41:54.908Z,1.55
2023-02-03T18:44:28.793Z,1.30
2023-02-03T18:47:07.396Z,1.27
2023-02-03T18:49:37.490Z,1.48
2023-02-03T18:52:07.319Z,1.50
2023-02-03T18:54:37.168Z,1.60
2023-02-03T18:57:07.845Z,1.33
2023-02-03T18:59:36.996Z,1.48
2023-02-03T19:02:06.719Z,1.50
2023-02-03T19:04:36.671Z,1.70
2023-02-03T19:07:06.801Z,1.30
2023-02-03T19:09:36.350Z,1.35
2023-02-03T19:12:06.608Z,1.60
2023-02-03T19:14:36.638Z,1.48
2023-02-03T19:17:06.583Z,1.50
2023-02-03T19:19:35.354Z,1.45
2023-02-03T19:22:04.428Z,1.40
2023-02-03T19:24:34.548Z,1.60
2023-02-03T19:27:03.256Z,1.52
2023-02-03T19:29:33.643Z,1.65
2023-02-03T19:32:04.901Z,1.65
2023-02-03T19:34:35.876Z,1.70
2023-02-03T19:37:05.360Z,1.40
2023-02-03T19:39:34.890Z,1.60
2023-02-03T19:42:04.847Z,1.58
2023-02-03T19:44:34.963Z,1.50
2023-02-03T19:47:04.546Z,1.70
2023-02-03T19:49:33.614Z,1.80
2023-02-03T19:52:04.006Z,3.50
2023-02-03T19:54:33.693Z,1.30
2023-02-03T19:57:04.053Z,1.63
2023-02-03T19:59:33.648Z,1.58
2023-02-03T20:02:13.798Z,1.40
2023-02-03T20:04:44.927Z,1.70
2023-02-03T20:07:14.918Z,1.63
2023-02-03T20:09:44.268Z,1.85
2023-02-03T20:12:14.815Z,1.60
2023-02-03T20:14:44.439Z,1.60
2023-02-03T20:17:14.892Z,1.70
2023-02-03T20:19:44.384Z,1.40
2023-02-03T20:22:13.325Z,1.85
2023-02-03T20:24:43.590Z,1.42
2023-02-03T20:27:13.011Z,1.58
2023-02-03T20:29:43.989Z,2.33
2023-02-03T20:32:14.555Z,1.42
2023-02-03T20:34:43.940Z,1.52
2023-02-03T20:37:14.526Z,1.73
2023-02-03T20:39:44.251Z,1.98
2023-02-03T20:42:20.432Z,1.40
2023-02-03T20:44:49.623Z,1.70
2023-02-03T20:47:23.208Z,1.80
2023-02-03T20:49:53.027Z,1.85
2023-02-03T20:52:23.091Z,1.67
2023-02-03T20:54:52.855Z,1.50
2023-02-03T20:57:23.890Z,1.40
2023-02-03T20:59:53.278Z,1.63
2023-02-03T21:02:46.887Z,1.70
2023-02-03T21:05:38.666Z,1.80
2023-02-03T21:08:16.275Z,1.55
2023-02-03T21:10:46.724Z,1.55
2023-02-03T21:13:21.653Z,1.80
2023-02-03T21:16:01.473Z,1.70
2023-02-03T21:18:48.318Z,1.85
2023-02-03T21:21:44.347Z,1.65
2023-02-03T21:24:38.784Z,1.73
2023-02-03T21:27:31.942Z,1.40
2023-02-03T21:30:09.174Z,1.63
2023-02-03T21:33:39.293Z,1.52
2023-02-03T21:36:20.387Z,1.48
2023-02-03T21:38:59.317Z,1.52
2023-02-03T21:41:34.616Z,1.60
2023-02-03T21:44:04.094Z,1.50
2023-02-03T21:46:34.946Z,1.40
2023-02-03T21:49:04.821Z,1.63
2023-02-03T21:51:40.568Z,1.38
2023-02-03T21:54:35.142Z,1.98
2023-02-03T21:57:04.894Z,1.55
2023-02-03T21:59:48.508Z,1.73
2023-02-03T22:02:40.937Z,1.80
2023-02-03T22:05:17.241Z,1.60
2023-02-03T22:07:48.129Z,1.60
2023-02-03T22:10:17.160Z,1.80
2023-02-03T22:12:46.780Z,1.90
2023-02-03T22:15:16.406Z,1.80
2023-02-03T22:17:49.084Z,1.70
2023-02-03T22:22:51.273Z,1.85
2023-02-03T22:25:20.783Z,1.58
2023-02-03T22:27:50.422Z,1.40
2023-02-03T22:30:21.117Z,1.80
2023-02-03T22:32:51.920Z,1.38
2023-02-03T22:35:20.860Z,1.65
2023-02-03T22:37:53.060Z,1.70
2023-02-03T22:40:24.702Z,1.63
2023-02-03T22:42:58.053Z,1.70
2023-02-03T22:45:31.184Z,2.03
2023-02-03T22:48:03.383Z,1.58
2023-02-03T22:50:35.863Z,1.70
2023-02-03T22:53:07.224Z,1.67
2023-02-03T22:55:39.114Z,1.60
2023-02-03T22:58:09.002Z,1.50
2023-02-03T23:00:39.488Z,1.70
2023-02-03T23:03:09.286Z,1.80
2023-02-03T23:05:39.953Z,1.52
2023-02-03T23:08:10.938Z,1.70
2023-02-03T23:10:41.227Z,1.92
2023-02-03T23:13:12.057Z,1.50
2023-02-03T23:15:42.927Z,1.80
2023-02-03T23:18:12.688Z,1.85
2023-02-03T23:20:42.741Z,1.70
2023-02-03T23:23:13.093Z,1.75
2023-02-03T23:25:43.252Z,1.77
2023-02-03T23:28:12.581Z,1.70
2023-02-03T23:30:41.447Z,1.70
2023-02-03T23:33:13.213Z,1.67
2023-02-03T23:35:50.466Z,1.70
2023-02-03T23:38:20.672Z,1.70
2023-02-03T23:40:52.608Z,1.60
2023-02-03T23:43:22.952Z,2.53
2023-02-03T23:45:52.418Z,1.48
2023-02-03T23:48:21.309Z,1.80
2023-02-03T23:50:52.811Z,1.80
2023-02-03T23:53:22.455Z,1.80
2023-02-03T23:55:52.167Z,1.67
2023-02-03T23:58:22.359Z,1.70
